sensor_id;sensor_type;location;lat;lon;timestamp;pressure;altitude;pressure_sealevel;temperature;humidity
11172;BME280;5642;50.830;12.082;2023-07-08T00:00:46;99782.91;;;17.86;32.66
11172;BME280;5642;50.830;12.082;2023-07-08T00:03:18;99785.81;;;17.82;32.53
11172;BME280;5642;50.830;12.082;2023-07-08T00:05:50;99790.50;;;17.77;32.83
11172;BME280;5642;50.830;12.082;2023-07-08T00:08:21;99785.53;;;17.71;32.86
11172;BME280;5642;50.830;12.082;2023-07-08T00:10:48;99788.38;;;17.68;32.91
11172;BME280;5642;50.830;12.082;2023-07-08T00:13:16;99779.94;;;17.59;33.15
11172;BME280;5642;50.830;12.082;2023-07-08T00:15:46;99781.13;;;17.54;33.21
11172;BME280;5642;50.830;12.082;2023-07-08T00:18:16;99781.88;;;17.56;33.35
11172;BME280;5642;50.830;12.082;2023-07-08T00:20:48;99783.78;;;17.54;33.43
11172;BME280;5642;50.830;12.082;2023-07-08T00:23:15;99789.38;;;17.48;33.36
11172;BME280;5642;50.830;12.082;2023-07-08T00:25:42;99780.63;;;17.47;33.33
11172;BME280;5642;50.830;12.082;2023-07-08T00:28:12;99784.28;;;17.45;33.50
11172;BME280;5642;50.830;12.082;2023-07-08T00:30:39;99776.59;;;17.40;33.60
11172;BME280;5642;50.830;12.082;2023-07-08T00:33:06;99782.88;;;17.38;33.42
11172;BME280;5642;50.830;12.082;2023-07-08T00:35:44;99784.69;;;17.37;33.78
11172;BME280;5642;50.830;12.082;2023-07-08T00:38:25;99778.84;;;17.31;33.67
11172;BME280;5642;50.830;12.082;2023-07-08T00:43:38;99758.81;;;17.09;33.84
11172;BME280;5642;50.830;12.082;2023-07-08T00:51:35;99775.94;;;17.02;33.92
11172;BME280;5642;50.830;12.082;2023-07-08T00:56:49;99778.06;;;16.96;34.19
11172;BME280;5642;50.830;12.082;2023-07-08T00:59:27;99780.84;;;16.93;34.13
11172;BME280;5642;50.830;12.082;2023-07-08T01:01:57;99766.41;;;16.82;33.98
11172;BME280;5642;50.830;12.082;2023-07-08T01:07:54;99781.63;;;16.77;34.31
11172;BME280;5642;50.830;12.082;2023-07-08T01:10:49;99783.59;;;16.74;34.40
11172;BME280;5642;50.830;12.082;2023-07-08T01:13:17;99782.03;;;16.70;34.31
11172;BME280;5642;50.830;12.082;2023-07-08T01:15:46;99764.00;;;16.61;33.99
11172;BME280;5642;50.830;12.082;2023-07-08T01:18:17;99794.41;;;16.69;34.48
11172;BME280;5642;50.830;12.082;2023-07-08T01:20:48;99786.75;;;16.63;34.52
11172;BME280;5642;50.830;12.082;2023-07-08T01:23:15;99789.41;;;16.63;34.61
11172;BME280;5642;50.830;12.082;2023-07-08T01:25:43;99788.47;;;16.64;34.45
11172;BME280;5642;50.830;12.082;2023-07-08T01:28:11;99777.31;;;16.58;34.72
11172;BME280;5642;50.830;12.082;2023-07-08T01:30:41;99778.94;;;16.62;34.74
11172;BME280;5642;50.830;12.082;2023-07-08T01:33:17;99783.41;;;16.60;34.80
11172;BME280;5642;50.830;12.082;2023-07-08T01:35:45;99778.25;;;16.57;34.88
11172;BME280;5642;50.830;12.082;2023-07-08T01:38:15;99775.59;;;16.57;34.83
11172;BME280;5642;50.830;12.082;2023-07-08T01:40:52;99772.09;;;16.56;34.88
11172;BME280;5642;50.830;12.082;2023-07-08T01:43:19;99766.28;;;16.50;34.81
11172;BME280;5642;50.830;12.082;2023-07-08T01:45:49;99752.75;;;16.38;34.93
11172;BME280;5642;50.830;12.082;2023-07-08T01:48:22;99769.00;;;16.48;34.96
11172;BME280;5642;50.830;12.082;2023-07-08T01:51:03;99780.28;;;16.52;35.13
11172;BME280;5642;50.830;12.082;2023-07-08T01:53:35;99777.09;;;16.45;34.98
11172;BME280;5642;50.830;12.082;2023-07-08T01:56:02;99778.25;;;16.39;35.00
11172;BME280;5642;50.830;12.082;2023-07-08T01:58:30;99773.28;;;16.33;34.99
11172;BME280;5642;50.830;12.082;2023-07-08T02:00:57;99763.69;;;16.31;35.07
11172;BME280;5642;50.830;12.082;2023-07-08T02:03:25;99773.53;;;16.27;35.35
11172;BME280;5642;50.830;12.082;2023-07-08T02:05:53;99767.50;;;16.25;35.28
11172;BME280;5642;50.830;12.082;2023-07-08T02:08:20;99764.13;;;16.22;35.43
11172;BME280;5642;50.830;12.082;2023-07-08T02:10:56;99759.16;;;16.16;35.72
11172;BME280;5642;50.830;12.082;2023-07-08T02:13:22;99765.16;;;16.19;35.48
11172;BME280;5642;50.830;12.082;2023-07-08T02:15:51;99766.03;;;16.20;35.40
11172;BME280;5642;50.830;12.082;2023-07-08T02:18:18;99760.06;;;16.15;35.58
11172;BME280;5642;50.830;12.082;2023-07-08T02:20:45;99766.28;;;16.14;35.63
11172;BME280;5642;50.830;12.082;2023-07-08T02:23:13;99776.00;;;16.13;35.77
11172;BME280;5642;50.830;12.082;2023-07-08T02:25:39;99765.03;;;16.03;35.79
11172;BME280;5642;50.830;12.082;2023-07-08T02:28:07;99771.03;;;16.07;35.76
11172;BME280;5642;50.830;12.082;2023-07-08T02:30:33;99754.78;;;15.97;35.75
11172;BME280;5642;50.830;12.082;2023-07-08T02:33:00;99769.41;;;16.04;35.98
11172;BME280;5642;50.830;12.082;2023-07-08T02:35:29;99774.81;;;16.01;35.89
11172;BME280;5642;50.830;12.082;2023-07-08T02:37:56;99768.84;;;15.98;36.00
11172;BME280;5642;50.830;12.082;2023-07-08T02:40:23;99769.91;;;15.94;35.94
11172;BME280;5642;50.830;12.082;2023-07-08T02:42:51;99766.41;;;15.93;36.08
11172;BME280;5642;50.830;12.082;2023-07-08T02:45:17;99769.09;;;15.92;36.01
11172;BME280;5642;50.830;12.082;2023-07-08T02:47:45;99747.72;;;15.79;36.05
11172;BME280;5642;50.830;12.082;2023-07-08T02:50:12;99771.06;;;15.88;36.07
11172;BME280;5642;50.830;12.082;2023-07-08T02:52:39;99768.47;;;15.87;36.02
11172;BME280;5642;50.830;12.082;2023-07-08T02:55:06;99743.81;;;15.69;36.12
11172;BME280;5642;50.830;12.082;2023-07-08T02:57:33;99772.03;;;15.86;36.19
11172;BME280;5642;50.830;12.082;2023-07-08T02:59:59;99762.69;;;15.79;36.12
11172;BME280;5642;50.830;12.082;2023-07-08T03:02:27;99767.00;;;15.81;35.91
11172;BME280;5642;50.830;12.082;2023-07-08T03:04:57;99765.34;;;15.79;36.39
11172;BME280;5642;50.830;12.082;2023-07-08T03:07:26;99760.16;;;15.77;36.38
11172;BME280;5642;50.830;12.082;2023-07-08T03:09:52;99770.78;;;15.76;36.37
11172;BME280;5642;50.830;12.082;2023-07-08T03:12:20;99777.78;;;15.77;36.30
11172;BME280;5642;50.830;12.082;2023-07-08T03:14:47;99770.91;;;15.73;36.29
11172;BME280;5642;50.830;12.082;2023-07-08T03:17:13;99777.22;;;15.70;36.41
11172;BME280;5642;50.830;12.082;2023-07-08T03:19:40;99778.91;;;15.71;36.49
11172;BME280;5642;50.830;12.082;2023-07-08T03:22:09;99780.78;;;15.69;36.54
11172;BME280;5642;50.830;12.082;2023-07-08T03:24:36;99782.63;;;15.67;36.45
11172;BME280;5642;50.830;12.082;2023-07-08T03:27:02;99762.06;;;15.55;36.58
11172;BME280;5642;50.830;12.082;2023-07-08T03:29:31;99777.56;;;15.62;36.57
11172;BME280;5642;50.830;12.082;2023-07-08T03:31:59;99784.97;;;15.73;36.48
11172;BME280;5642;50.830;12.082;2023-07-08T03:34:26;99781.53;;;15.71;36.63
11172;BME280;5642;50.830;12.082;2023-07-08T03:36:52;99761.84;;;15.59;36.70
11172;BME280;5642;50.830;12.082;2023-07-08T03:39:21;99784.84;;;15.76;36.59
11172;BME280;5642;50.830;12.082;2023-07-08T03:41:51;99789.97;;;15.79;36.52
11172;BME280;5642;50.830;12.082;2023-07-08T03:44:17;99775.84;;;15.80;36.65
11172;BME280;5642;50.830;12.082;2023-07-08T03:46:47;99793.97;;;15.88;36.59
11172;BME280;5642;50.830;12.082;2023-07-08T03:51:59;99777.69;;;15.97;36.48
11172;BME280;5642;50.830;12.082;2023-07-08T03:54:26;99787.59;;;16.11;36.49
11172;BME280;5642;50.830;12.082;2023-07-08T03:56:54;99780.38;;;16.14;36.41
11172;BME280;5642;50.830;12.082;2023-07-08T03:59:20;99796.41;;;16.28;36.32
11172;BME280;5642;50.830;12.082;2023-07-08T04:01:46;99791.09;;;16.47;36.06
11172;BME280;5642;50.830;12.082;2023-07-08T04:04:15;99794.25;;;16.90;35.82
11172;BME280;5642;50.830;12.082;2023-07-08T04:06:43;99782.41;;;17.47;35.00
11172;BME280;5642;50.830;12.082;2023-07-08T04:09:09;99790.09;;;18.16;34.25
11172;BME280;5642;50.830;12.082;2023-07-08T04:11:37;99788.06;;;18.51;34.27
11172;BME280;5642;50.830;12.082;2023-07-08T04:14:04;99785.25;;;18.54;34.39
11172;BME280;5642;50.830;12.082;2023-07-08T04:16:51;99775.28;;;18.73;34.28
11172;BME280;5642;50.830;12.082;2023-07-08T04:19:19;99781.28;;;18.91;34.08
11172;BME280;5642;50.830;12.082;2023-07-08T04:21:50;99776.94;;;18.90;34.26
11172;BME280;5642;50.830;12.082;2023-07-08T04:24:17;99764.63;;;18.89;34.38
11172;BME280;5642;50.830;12.082;2023-07-08T04:26:47;99782.38;;;19.02;34.42
11172;BME280;5642;50.830;12.082;2023-07-08T04:29:16;99785.19;;;18.99;34.59
11172;BME280;5642;50.830;12.082;2023-07-08T04:31:43;99788.59;;;18.87;34.93
11172;BME280;5642;50.830;12.082;2023-07-08T04:34:11;99787.06;;;18.83;35.05
11172;BME280;5642;50.830;12.082;2023-07-08T04:36:37;99796.72;;;18.84;35.08
11172;BME280;5642;50.830;12.082;2023-07-08T04:39:06;99785.94;;;18.87;34.89
11172;BME280;5642;50.830;12.082;2023-07-08T04:41:32;99798.03;;;19.07;35.05
11172;BME280;5642;50.830;12.082;2023-07-08T04:43:59;99795.03;;;19.55;34.73
11172;BME280;5642;50.830;12.082;2023-07-08T04:49:14;99801.59;;;21.25;33.54
11172;BME280;5642;50.830;12.082;2023-07-08T04:51:41;99804.09;;;22.15;32.50
11172;BME280;5642;50.830;12.082;2023-07-08T04:54:08;99794.06;;;23.01;31.88
11172;BME280;5642;50.830;12.082;2023-07-08T04:56:45;99801.94;;;23.94;31.63
11172;BME280;5642;50.830;12.082;2023-07-08T04:59:18;99793.19;;;24.78;30.72
11172;BME280;5642;50.830;12.082;2023-07-08T05:01:45;99781.16;;;25.55;30.37
11172;BME280;5642;50.830;12.082;2023-07-08T05:04:18;99787.41;;;26.36;30.30
11172;BME280;5642;50.830;12.082;2023-07-08T05:06:45;99791.34;;;27.18;29.65
11172;BME280;5642;50.830;12.082;2023-07-08T05:09:13;99776.28;;;27.82;29.21
11172;BME280;5642;50.830;12.082;2023-07-08T05:11:38;99776.34;;;28.44;29.23
11172;BME280;5642;50.830;12.082;2023-07-08T05:14:06;99774.88;;;29.03;28.84
11172;BME280;5642;50.830;12.082;2023-07-08T05:16:34;99787.97;;;29.68;28.20
11172;BME280;5642;50.830;12.082;2023-07-08T05:19:04;99778.59;;;30.30;27.95
11172;BME280;5642;50.830;12.082;2023-07-08T05:21:33;99786.81;;;30.87;27.77
11172;BME280;5642;50.830;12.082;2023-07-08T05:24:03;99776.81;;;31.36;27.88
11172;BME280;5642;50.830;12.082;2023-07-08T05:26:29;99775.50;;;31.87;27.39
11172;BME280;5642;50.830;12.082;2023-07-08T05:28:57;99771.41;;;32.30;27.24
11172;BME280;5642;50.830;12.082;2023-07-08T05:31:25;99769.56;;;32.76;27.39
11172;BME280;5642;50.830;12.082;2023-07-08T05:33:52;99768.00;;;33.19;26.85
11172;BME280;5642;50.830;12.082;2023-07-08T05:36:17;99765.34;;;33.63;26.64
11172;BME280;5642;50.830;12.082;2023-07-08T05:38:45;99764.22;;;34.02;26.79
11172;BME280;5642;50.830;12.082;2023-07-08T05:41:12;99764.03;;;34.39;26.49
11172;BME280;5642;50.830;12.082;2023-07-08T05:43:40;99759.25;;;34.63;26.14
11172;BME280;5642;50.830;12.082;2023-07-08T05:46:07;99756.09;;;35.02;25.97
11172;BME280;5642;50.830;12.082;2023-07-08T05:48:37;99750.03;;;35.27;25.86
11172;BME280;5642;50.830;12.082;2023-07-08T05:51:04;99756.47;;;35.54;25.69
11172;BME280;5642;50.830;12.082;2023-07-08T05:53:30;99748.50;;;35.81;25.57
11172;BME280;5642;50.830;12.082;2023-07-08T05:55:55;99761.59;;;36.11;25.50
11172;BME280;5642;50.830;12.082;2023-07-08T05:58:22;99766.53;;;36.36;25.27
11172;BME280;5642;50.830;12.082;2023-07-08T06:00:55;99752.28;;;36.47;25.26
11172;BME280;5642;50.830;12.082;2023-07-08T06:03:24;99764.13;;;36.80;25.01
11172;BME280;5642;50.830;12.082;2023-07-08T06:05:52;99760.38;;;37.14;24.65
11172;BME280;5642;50.830;12.082;2023-07-08T06:08:18;99767.66;;;37.53;24.50
11172;BME280;5642;50.830;12.082;2023-07-08T06:10:46;99760.25;;;37.87;24.54
11172;BME280;5642;50.830;12.082;2023-07-08T06:13:14;99756.75;;;38.18;24.37
11172;BME280;5642;50.830;12.082;2023-07-08T06:15:41;99759.34;;;38.51;24.38
11172;BME280;5642;50.830;12.082;2023-07-08T06:18:07;99762.66;;;38.84;24.34
11172;BME280;5642;50.830;12.082;2023-07-08T06:20:34;99766.19;;;39.16;23.70
11172;BME280;5642;50.830;12.082;2023-07-08T06:23:02;99763.38;;;39.23;24.04
11172;BME280;5642;50.830;12.082;2023-07-08T06:25:28;99768.06;;;39.22;24.10
11172;BME280;5642;50.830;12.082;2023-07-08T06:27:54;99756.19;;;39.28;23.62
11172;BME280;5642;50.830;12.082;2023-07-08T06:30:22;99731.25;;;39.36;23.97
11172;BME280;5642;50.830;12.082;2023-07-08T06:32:50;99747.47;;;39.74;23.60
11172;BME280;5642;50.830;12.082;2023-07-08T06:35:18;99753.56;;;40.13;23.68
11172;BME280;5642;50.830;12.082;2023-07-08T06:37:46;99760.63;;;40.50;23.31
11172;BME280;5642;50.830;12.082;2023-07-08T06:40:12;99753.38;;;40.97;22.99
11172;BME280;5642;50.830;12.082;2023-07-08T06:42:39;99755.06;;;41.45;22.96
11172;BME280;5642;50.830;12.082;2023-07-08T06:45:07;99754.34;;;41.85;22.73
11172;BME280;5642;50.830;12.082;2023-07-08T06:47:33;99757.91;;;42.25;22.22
11172;BME280;5642;50.830;12.082;2023-07-08T06:49:59;99752.09;;;42.67;22.10
11172;BME280;5642;50.830;12.082;2023-07-08T06:52:26;99749.97;;;43.02;21.81
11172;BME280;5642;50.830;12.082;2023-07-08T06:54:52;99737.88;;;43.42;21.41
11172;BME280;5642;50.830;12.082;2023-07-08T06:57:18;99752.66;;;43.91;21.42
11172;BME280;5642;50.830;12.082;2023-07-08T06:59:45;99745.78;;;44.37;21.18
11172;BME280;5642;50.830;12.082;2023-07-08T07:02:12;99734.84;;;44.79;20.99
11172;BME280;5642;50.830;12.082;2023-07-08T07:04:39;99739.13;;;45.34;20.68
11172;BME280;5642;50.830;12.082;2023-07-08T07:07:05;99731.34;;;45.78;20.79
11172;BME280;5642;50.830;12.082;2023-07-08T07:09:33;99736.28;;;46.28;20.08
11172;BME280;5642;50.830;12.082;2023-07-08T07:12:01;99738.56;;;46.71;19.78
11172;BME280;5642;50.830;12.082;2023-07-08T07:14:27;99733.84;;;47.07;19.82
11172;BME280;5642;50.830;12.082;2023-07-08T07:16:53;99740.44;;;47.52;19.49
11172;BME280;5642;50.830;12.082;2023-07-08T07:19:19;99732.53;;;47.84;19.29
11172;BME280;5642;50.830;12.082;2023-07-08T07:21:47;99734.97;;;48.06;19.41
11172;BME280;5642;50.830;12.082;2023-07-08T07:24:13;99738.94;;;48.34;19.18
11172;BME280;5642;50.830;12.082;2023-07-08T07:26:40;99733.97;;;48.70;18.94
11172;BME280;5642;50.830;12.082;2023-07-08T07:29:06;99726.03;;;48.92;18.70
11172;BME280;5642;50.830;12.082;2023-07-08T07:31:32;99728.28;;;49.19;18.11
11172;BME280;5642;50.830;12.082;2023-07-08T07:33:59;99734.22;;;49.60;18.00
11172;BME280;5642;50.830;12.082;2023-07-08T07:36:26;99722.44;;;49.92;18.37
11172;BME280;5642;50.830;12.082;2023-07-08T07:38:52;99727.16;;;50.15;18.18
11172;BME280;5642;50.830;12.082;2023-07-08T07:41:18;99720.56;;;50.44;17.78
11172;BME280;5642;50.830;12.082;2023-07-08T07:43:44;99719.34;;;50.87;17.95
11172;BME280;5642;50.830;12.082;2023-07-08T07:46:12;99717.41;;;51.15;17.16
11172;BME280;5642;50.830;12.082;2023-07-08T07:48:39;99709.88;;;51.16;17.65
11172;BME280;5642;50.830;12.082;2023-07-08T07:51:05;99708.50;;;50.81;17.07
11172;BME280;5642;50.830;12.082;2023-07-08T07:53:33;99712.78;;;50.03;17.89
11172;BME280;5642;50.830;12.082;2023-07-08T07:56:00;99709.63;;;49.20;17.73
11172;BME280;5642;50.830;12.082;2023-07-08T07:58:27;99711.84;;;48.60;18.22
11172;BME280;5642;50.830;12.082;2023-07-08T08:00:53;99703.84;;;48.04;17.84
11172;BME280;5642;50.830;12.082;2023-07-08T08:03:20;99717.63;;;47.65;18.32
11172;BME280;5642;50.830;12.082;2023-07-08T08:05:47;99711.66;;;47.18;18.52
11172;BME280;5642;50.830;12.082;2023-07-08T08:08:13;99716.41;;;46.82;18.72
11172;BME280;5642;50.830;12.082;2023-07-08T08:10:39;99716.94;;;46.94;18.29
11172;BME280;5642;50.830;12.082;2023-07-08T08:13:05;99710.84;;;47.07;18.26
11172;BME280;5642;50.830;12.082;2023-07-08T08:15:31;99722.78;;;47.02;18.17
11172;BME280;5642;50.830;12.082;2023-07-08T08:17:57;99718.06;;;46.88;18.42
11172;BME280;5642;50.830;12.082;2023-07-08T08:20:24;99716.09;;;46.53;18.17
11172;BME280;5642;50.830;12.082;2023-07-08T08:22:51;99709.06;;;46.20;18.52
11172;BME280;5642;50.830;12.082;2023-07-08T08:25:18;99715.41;;;46.00;18.51
11172;BME280;5642;50.830;12.082;2023-07-08T08:27:45;99725.09;;;45.45;18.20
11172;BME280;5642;50.830;12.082;2023-07-08T08:30:12;99731.56;;;44.82;18.51
11172;BME280;5642;50.830;12.082;2023-07-08T08:32:38;99714.97;;;44.28;18.74
11172;BME280;5642;50.830;12.082;2023-07-08T08:35:04;99727.69;;;44.29;18.78
11172;BME280;5642;50.830;12.082;2023-07-08T08:37:32;99721.09;;;44.57;18.81
11172;BME280;5642;50.830;12.082;2023-07-08T08:39:57;99727.50;;;44.95;18.25
11172;BME280;5642;50.830;12.082;2023-07-08T08:42:57;99734.28;;;45.51;18.51
11172;BME280;5642;50.830;12.082;2023-07-08T08:45:24;99727.88;;;46.03;18.26
11172;BME280;5642;50.830;12.082;2023-07-08T08:48:03;99717.50;;;46.81;18.11
11172;BME280;5642;50.830;12.082;2023-07-08T08:50:36;99728.75;;;47.60;17.43
11172;BME280;5642;50.830;12.082;2023-07-08T08:53:11;99717.13;;;48.56;17.22
11172;BME280;5642;50.830;12.082;2023-07-08T08:55:38;99726.69;;;49.61;16.46
11172;BME280;5642;50.830;12.082;2023-07-08T08:58:31;99721.09;;;50.65;16.69
11172;BME280;5642;50.830;12.082;2023-07-08T09:01:06;99725.84;;;51.56;15.66
11172;BME280;5642;50.830;12.082;2023-07-08T09:03:48;99715.34;;;52.39;15.46
11172;BME280;5642;50.830;12.082;2023-07-08T09:06:19;99719.84;;;53.15;15.51
11172;BME280;5642;50.830;12.082;2023-07-08T09:08:46;99707.06;;;53.71;14.99
11172;BME280;5642;50.830;12.082;2023-07-08T09:14:24;99705.16;;;54.32;14.49
11172;BME280;5642;50.830;12.082;2023-07-08T09:19:30;99707.31;;;54.35;14.52
11172;BME280;5642;50.830;12.082;2023-07-08T09:22:18;99710.13;;;54.35;14.83
11172;BME280;5642;50.830;12.082;2023-07-08T09:27:14;99700.84;;;54.69;14.00
11172;BME280;5642;50.830;12.082;2023-07-08T09:29:41;99707.72;;;55.06;13.80
11172;BME280;5642;50.830;12.082;2023-07-08T09:32:22;99700.31;;;55.31;13.88
11172;BME280;5642;50.830;12.082;2023-07-08T09:34:52;99709.94;;;55.59;14.02
11172;BME280;5642;50.830;12.082;2023-07-08T09:37:39;99706.59;;;55.95;13.65
11172;BME280;5642;50.830;12.082;2023-07-08T09:40:32;99690.34;;;56.22;13.83
11172;BME280;5642;50.830;12.082;2023-07-08T09:43:34;99693.59;;;56.32;13.64
11172;BME280;5642;50.830;12.082;2023-07-08T09:46:01;99683.75;;;56.38;13.58
11172;BME280;5642;50.830;12.082;2023-07-08T09:48:35;99684.25;;;56.40;13.07
11172;BME280;5642;50.830;12.082;2023-07-08T09:51:02;99691.03;;;56.39;12.77
11172;BME280;5642;50.830;12.082;2023-07-08T09:53:28;99682.13;;;56.37;12.93
11172;BME280;5642;50.830;12.082;2023-07-08T09:55:59;99694.41;;;56.33;12.95
11172;BME280;5642;50.830;12.082;2023-07-08T09:58:32;99684.31;;;56.32;12.34
11172;BME280;5642;50.830;12.082;2023-07-08T10:01:01;99688.06;;;56.36;12.28
11172;BME280;5642;50.830;12.082;2023-07-08T10:03:33;99687.47;;;56.30;12.84
11172;BME280;5642;50.830;12.082;2023-07-08T10:06:04;99680.06;;;56.26;12.03
11172;BME280;5642;50.830;12.082;2023-07-08T10:08:40;99682.88;;;56.26;12.23
11172;BME280;5642;50.830;12.082;2023-07-08T10:11:25;99679.19;;;56.34;12.59
11172;BME280;5642;50.830;12.082;2023-07-08T10:13:54;99689.09;;;55.90;12.51
11172;BME280;5642;50.830;12.082;2023-07-08T10:16:32;99679.50;;;55.40;12.24
11172;BME280;5642;50.830;12.082;2023-07-08T10:19:00;99676.47;;;55.08;12.78
11172;BME280;5642;50.830;12.082;2023-07-08T10:24:51;99663.41;;;55.20;11.85
11172;BME280;5642;50.830;12.082;2023-07-08T10:27:28;99657.72;;;55.29;12.00
11172;BME280;5642;50.830;12.082;2023-07-08T10:35:27;99656.81;;;55.08;11.42
11172;BME280;5642;50.830;12.082;2023-07-08T10:40:49;99659.00;;;54.93;11.19
11172;BME280;5642;50.830;12.082;2023-07-08T10:48:55;99659.59;;;53.75;11.66
11172;BME280;5642;50.830;12.082;2023-07-08T10:51:31;99669.53;;;53.02;11.80
11172;BME280;5642;50.830;12.082;2023-07-08T10:54:44;99665.72;;;52.22;11.65
11172;BME280;5642;50.830;12.082;2023-07-08T11:03:49;99664.19;;;49.72;12.26
11172;BME280;5642;50.830;12.082;2023-07-08T11:06:17;99659.28;;;48.92;11.76
11172;BME280;5642;50.830;12.082;2023-07-08T11:08:54;99665.38;;;48.26;12.27
11172;BME280;5642;50.830;12.082;2023-07-08T11:14:25;99658.31;;;47.46;12.13
11172;BME280;5642;50.830;12.082;2023-07-08T11:17:08;99658.69;;;46.94;12.20
11172;BME280;5642;50.830;12.082;2023-07-08T11:19:38;99647.63;;;46.79;12.10
11172;BME280;5642;50.830;12.082;2023-07-08T11:22:11;99659.25;;;47.01;12.29
11172;BME280;5642;50.830;12.082;2023-07-08T11:24:51;99652.25;;;47.39;11.93
11172;BME280;5642;50.830;12.082;2023-07-08T11:27:20;99645.91;;;47.82;12.28
11172;BME280;5642;50.830;12.082;2023-07-08T11:32:32;99647.78;;;48.70;11.77
11172;BME280;5642;50.830;12.082;2023-07-08T11:35:02;99642.16;;;48.80;11.68
11172;BME280;5642;50.830;12.082;2023-07-08T11:37:31;99644.13;;;48.75;11.38
11172;BME280;5642;50.830;12.082;2023-07-08T11:42:46;99641.53;;;47.76;11.20
11172;BME280;5642;50.830;12.082;2023-07-08T11:45:23;99646.50;;;47.05;11.51
11172;BME280;5642;50.830;12.082;2023-07-08T11:47:49;99640.66;;;46.00;11.51
11172;BME280;5642;50.830;12.082;2023-07-08T11:50:29;99638.53;;;44.98;11.60
11172;BME280;5642;50.830;12.082;2023-07-08T11:53:07;99653.41;;;44.01;11.62
11172;BME280;5642;50.830;12.082;2023-07-08T11:55:42;99656.00;;;43.04;11.95
11172;BME280;5642;50.830;12.082;2023-07-08T11:58:24;99641.94;;;42.05;12.14
11172;BME280;5642;50.830;12.082;2023-07-08T12:03:53;99651.59;;;40.69;12.61
11172;BME280;5642;50.830;12.082;2023-07-08T12:09:22;99631.38;;;39.50;12.83
11172;BME280;5642;50.830;12.082;2023-07-08T12:12:00;99643.59;;;39.11;12.84
11172;BME280;5642;50.830;12.082;2023-07-08T12:14:28;99637.41;;;38.73;12.62
11172;BME280;5642;50.830;12.082;2023-07-08T12:16:55;99645.88;;;38.40;12.82
11172;BME280;5642;50.830;12.082;2023-07-08T12:19:23;99620.91;;;38.05;13.24
11172;BME280;5642;50.830;12.082;2023-07-08T12:21:54;99640.19;;;37.79;13.20
11172;BME280;5642;50.830;12.082;2023-07-08T12:24:20;99630.81;;;37.48;13.00
11172;BME280;5642;50.830;12.082;2023-07-08T12:26:53;99628.34;;;37.34;13.33
11172;BME280;5642;50.830;12.082;2023-07-08T12:29:19;99629.88;;;37.23;13.15
11172;BME280;5642;50.830;12.082;2023-07-08T12:31:45;99633.63;;;37.29;12.91
11172;BME280;5642;50.830;12.082;2023-07-08T12:34:14;99630.28;;;37.27;13.15
11172;BME280;5642;50.830;12.082;2023-07-08T12:36:44;99631.78;;;37.22;12.93
11172;BME280;5642;50.830;12.082;2023-07-08T12:39:15;99620.63;;;37.17;13.04
11172;BME280;5642;50.830;12.082;2023-07-08T12:41:45;99606.16;;;37.04;13.35
11172;BME280;5642;50.830;12.082;2023-07-08T12:44:17;99609.50;;;37.06;13.09
11172;BME280;5642;50.830;12.082;2023-07-08T12:46:51;99614.34;;;37.04;13.23
11172;BME280;5642;50.830;12.082;2023-07-08T12:49:18;99612.66;;;37.03;13.12
11172;BME280;5642;50.830;12.082;2023-07-08T12:51:46;99614.16;;;36.99;13.11
11172;BME280;5642;50.830;12.082;2023-07-08T12:54:13;99610.19;;;36.95;13.30
11172;BME280;5642;50.830;12.082;2023-07-08T12:56:44;99610.75;;;37.03;13.25
11172;BME280;5642;50.830;12.082;2023-07-08T12:59:17;99614.97;;;37.12;13.27
11172;BME280;5642;50.830;12.082;2023-07-08T13:01:45;99588.50;;;37.13;13.21
11172;BME280;5642;50.830;12.082;2023-07-08T13:04:13;99606.72;;;37.32;13.24
11172;BME280;5642;50.830;12.082;2023-07-08T13:06:40;99604.38;;;37.42;13.19
11172;BME280;5642;50.830;12.082;2023-07-08T13:09:39;99606.81;;;37.57;13.20
11172;BME280;5642;50.830;12.082;2023-07-08T13:12:19;99606.41;;;37.53;13.52
11172;BME280;5642;50.830;12.082;2023-07-08T13:14:53;99607.28;;;37.47;13.46
11172;BME280;5642;50.830;12.082;2023-07-08T13:17:21;99595.53;;;37.40;13.57
11172;BME280;5642;50.830;12.082;2023-07-08T13:19:48;99602.25;;;37.38;13.13
11172;BME280;5642;50.830;12.082;2023-07-08T13:22:19;99595.56;;;37.34;13.30
11172;BME280;5642;50.830;12.082;2023-07-08T13:24:47;99590.56;;;37.24;13.55
11172;BME280;5642;50.830;12.082;2023-07-08T13:27:24;99595.81;;;37.25;13.35
11172;BME280;5642;50.830;12.082;2023-07-08T13:29:52;99588.91;;;37.16;13.48
11172;BME280;5642;50.830;12.082;2023-07-08T13:32:18;99591.22;;;37.06;13.56
11172;BME280;5642;50.830;12.082;2023-07-08T13:34:48;99595.44;;;36.96;13.51
11172;BME280;5642;50.830;12.082;2023-07-08T13:37:14;99588.59;;;36.80;13.44
11172;BME280;5642;50.830;12.082;2023-07-08T13:39:44;99584.81;;;36.68;13.41
11172;BME280;5642;50.830;12.082;2023-07-08T13:42:11;99584.38;;;36.51;13.60
11172;BME280;5642;50.830;12.082;2023-07-08T13:44:43;99579.34;;;36.35;13.71
11172;BME280;5642;50.830;12.082;2023-07-08T13:47:26;99581.25;;;36.28;13.84
11172;BME280;5642;50.830;12.082;2023-07-08T13:50:00;99583.97;;;36.21;13.97
11172;BME280;5642;50.830;12.082;2023-07-08T13:52:30;99581.00;;;36.16;14.11
11172;BME280;5642;50.830;12.082;2023-07-08T13:55:05;99591.06;;;36.16;13.92
11172;BME280;5642;50.830;12.082;2023-07-08T13:57:38;99583.09;;;36.14;13.99
11172;BME280;5642;50.830;12.082;2023-07-08T14:00:06;99577.22;;;36.17;14.09
11172;BME280;5642;50.830;12.082;2023-07-08T14:02:34;99578.50;;;36.15;14.06
11172;BME280;5642;50.830;12.082;2023-07-08T14:05:08;99578.88;;;36.11;14.22
11172;BME280;5642;50.830;12.082;2023-07-08T14:07:36;99579.53;;;36.00;14.26
11172;BME280;5642;50.830;12.082;2023-07-08T14:10:10;99571.34;;;35.94;14.15
11172;BME280;5642;50.830;12.082;2023-07-08T14:12:37;99582.25;;;35.87;14.22
11172;BME280;5642;50.830;12.082;2023-07-08T14:15:03;99583.88;;;35.75;14.33
11172;BME280;5642;50.830;12.082;2023-07-08T14:17:31;99581.50;;;35.59;14.43
11172;BME280;5642;50.830;12.082;2023-07-08T14:19:57;99570.31;;;35.41;14.29